Weather at Baie-Comeau Airport

Public forecast

Using degrees Celsius for public forecast. Weather courtesy of forecast.io.

Current aviation weather report (METAR) for Baie-Comeau Airport

2024/06/18 05:00 (retrieved 39 minutes ago)

CYBC 180500Z AUTO 24016G21KT 9SM OVC055 17/14 A2995 RMK SLP145 DENSITY ALT 300FT

Closest aviation forecast (TAF) to Baie-Comeau Airport

Forecast is more than 6 hours old.

Closest forecast is Mont Joli Airport, 31.5 nm (58.3 km) S.

2024/06/17 20:30 Ammendment (retrieved 9 hours ago)

TAF AMD CYYY 172228Z 1720/1808 CNL RMK NO OBS NXT FCST BY 180200Z